sensor_id;sensor_type;location;lat;lon;timestamp;P1;durP1;ratioP1;P2;durP2;ratioP2
67726;SDS011;54525;55.680;37.540;2022-09-03T00:04:31;2.33;;;0.40;;
67726;SDS011;54525;55.680;37.540;2022-09-03T00:07:11;1.63;;;0.50;;
67726;SDS011;54525;55.680;37.540;2022-09-03T00:09:52;0.73;;;0.40;;
67726;SDS011;54525;55.680;37.540;2022-09-03T00:12:28;1.55;;;0.60;;
67726;SDS011;54525;55.680;37.540;2022-09-03T00:17:35;1.52;;;0.57;;
67726;SDS011;54525;55.680;37.540;2022-09-03T00:20:12;1.55;;;0.43;;
67726;SDS011;54525;55.680;37.540;2022-09-03T00:23:02;1.23;;;0.60;;
67726;SDS011;54525;55.680;37.540;2022-09-03T00:27:58;1.38;;;0.70;;
67726;SDS011;54525;55.680;37.540;2022-09-03T00:30:28;1.05;;;0.63;;
67726;SDS011;54525;55.680;37.540;2022-09-03T00:32:59;1.20;;;0.60;;
67726;SDS011;54525;55.680;37.540;2022-09-03T00:35:32;0.90;;;0.63;;
67726;SDS011;54525;55.680;37.540;2022-09-03T00:38:01;1.02;;;0.57;;
67726;SDS011;54525;55.680;37.540;2022-09-03T00:42:57;1.00;;;0.47;;
67726;SDS011;54525;55.680;37.540;2022-09-03T01:00:15;0.68;;;0.47;;
67726;SDS011;54525;55.680;37.540;2022-09-03T01:19:45;1.00;;;0.70;;
67726;SDS011;54525;55.680;37.540;2022-09-03T01:28:22;0.77;;;0.50;;
67726;SDS011;54525;55.680;37.540;2022-09-03T01:39:51;1.48;;;0.77;;
67726;SDS011;54525;55.680;37.540;2022-09-03T01:48:13;1.38;;;0.60;;
67726;SDS011;54525;55.680;37.540;2022-09-03T01:50:48;2.28;;;0.68;;
67726;SDS011;54525;55.680;37.540;2022-09-03T01:53:35;1.50;;;0.47;;
67726;SDS011;54525;55.680;37.540;2022-09-03T01:59:33;0.57;;;0.43;;
67726;SDS011;54525;55.680;37.540;2022-09-03T02:02:22;3.58;;;0.70;;
67726;SDS011;54525;55.680;37.540;2022-09-03T02:07:37;1.67;;;0.65;;
67726;SDS011;54525;55.680;37.540;2022-09-03T02:10:19;0.75;;;0.32;;
67726;SDS011;54525;55.680;37.540;2022-09-03T02:12:52;23.43;;;1.10;;
67726;SDS011;54525;55.680;37.540;2022-09-03T02:15:22;4.80;;;0.70;;
67726;SDS011;54525;55.680;37.540;2022-09-03T02:17:50;0.80;;;0.57;;
67726;SDS011;54525;55.680;37.540;2022-09-03T02:20:21;1.00;;;0.47;;
67726;SDS011;54525;55.680;37.540;2022-09-03T02:22:48;1.13;;;0.50;;
67726;SDS011;54525;55.680;37.540;2022-09-03T02:25:15;1.13;;;0.60;;
67726;SDS011;54525;55.680;37.540;2022-09-03T02:27:41;0.60;;;0.52;;
67726;SDS011;54525;55.680;37.540;2022-09-03T02:30:08;1.27;;;0.60;;
67726;SDS011;54525;55.680;37.540;2022-09-03T02:32:34;6.40;;;0.70;;
67726;SDS011;54525;55.680;37.540;2022-09-03T02:35:00;1.10;;;0.82;;
67726;SDS011;54525;55.680;37.540;2022-09-03T02:37:26;1.27;;;0.60;;
67726;SDS011;54525;55.680;37.540;2022-09-03T02:39:51;1.08;;;0.65;;
67726;SDS011;54525;55.680;37.540;2022-09-03T02:42:17;0.57;;;0.43;;
67726;SDS011;54525;55.680;37.540;2022-09-03T02:44:43;0.68;;;0.57;;
67726;SDS011;54525;55.680;37.540;2022-09-03T02:47:14;1.73;;;0.70;;
67726;SDS011;54525;55.680;37.540;2022-09-03T02:49:39;1.02;;;0.40;;
67726;SDS011;54525;55.680;37.540;2022-09-03T02:52:06;3.33;;;0.50;;
67726;SDS011;54525;55.680;37.540;2022-09-03T02:54:34;1.48;;;0.35;;
67726;SDS011;54525;55.680;37.540;2022-09-03T02:57:04;1.00;;;0.45;;
67726;SDS011;54525;55.680;37.540;2022-09-03T02:59:33;1.23;;;0.73;;
67726;SDS011;54525;55.680;37.540;2022-09-03T03:01:59;1.42;;;0.50;;
67726;SDS011;54525;55.680;37.540;2022-09-03T03:04:25;1.15;;;0.40;;
67726;SDS011;54525;55.680;37.540;2022-09-03T03:06:50;0.63;;;0.52;;
67726;SDS011;54525;55.680;37.540;2022-09-03T03:09:16;0.82;;;0.60;;
67726;SDS011;54525;55.680;37.540;2022-09-03T03:11:42;0.98;;;0.50;;
67726;SDS011;54525;55.680;37.540;2022-09-03T03:14:07;1.40;;;0.70;;
67726;SDS011;54525;55.680;37.540;2022-09-03T03:16:33;1.00;;;0.75;;
67726;SDS011;54525;55.680;37.540;2022-09-03T03:18:59;1.13;;;0.60;;
67726;SDS011;54525;55.680;37.540;2022-09-03T03:21:24;1.98;;;0.70;;
67726;SDS011;54525;55.680;37.540;2022-09-03T03:23:50;1.45;;;0.82;;
67726;SDS011;54525;55.680;37.540;2022-09-03T03:26:16;1.23;;;0.57;;
67726;SDS011;54525;55.680;37.540;2022-09-03T03:28:44;0.90;;;0.60;;
67726;SDS011;54525;55.680;37.540;2022-09-03T03:31:15;0.90;;;0.65;;
67726;SDS011;54525;55.680;37.540;2022-09-03T03:33:54;1.02;;;0.70;;
67726;SDS011;54525;55.680;37.540;2022-09-03T03:36:25;1.13;;;0.70;;
67726;SDS011;54525;55.680;37.540;2022-09-03T03:38:53;2.05;;;0.68;;
67726;SDS011;54525;55.680;37.540;2022-09-03T03:41:22;3.33;;;1.00;;
67726;SDS011;54525;55.680;37.540;2022-09-03T03:43:53;2.03;;;1.15;;
67726;SDS011;54525;55.680;37.540;2022-09-03T03:46:19;2.30;;;0.60;;
67726;SDS011;54525;55.680;37.540;2022-09-03T03:48:46;8.52;;;0.73;;
67726;SDS011;54525;55.680;37.540;2022-09-03T03:51:13;1.55;;;0.90;;
67726;SDS011;54525;55.680;37.540;2022-09-03T03:53:38;1.80;;;0.73;;
67726;SDS011;54525;55.680;37.540;2022-09-03T03:56:05;1.88;;;0.60;;
67726;SDS011;54525;55.680;37.540;2022-09-03T03:58:34;1.75;;;0.85;;
67726;SDS011;54525;55.680;37.540;2022-09-03T04:01:06;2.28;;;1.13;;
67726;SDS011;54525;55.680;37.540;2022-09-03T04:03:33;1.10;;;0.55;;
67726;SDS011;54525;55.680;37.540;2022-09-03T04:06:00;0.95;;;0.52;;
67726;SDS011;54525;55.680;37.540;2022-09-03T04:08:27;4.22;;;0.88;;
67726;SDS011;54525;55.680;37.540;2022-09-03T04:10:53;1.40;;;0.80;;
67726;SDS011;54525;55.680;37.540;2022-09-03T04:13:22;1.50;;;0.90;;
67726;SDS011;54525;55.680;37.540;2022-09-03T04:15:48;2.67;;;0.68;;
67726;SDS011;54525;55.680;37.540;2022-09-03T04:18:13;1.65;;;0.85;;
67726;SDS011;54525;55.680;37.540;2022-09-03T04:20:39;2.40;;;0.70;;
67726;SDS011;54525;55.680;37.540;2022-09-03T04:23:04;1.38;;;0.73;;
67726;SDS011;54525;55.680;37.540;2022-09-03T04:25:30;1.60;;;0.70;;
67726;SDS011;54525;55.680;37.540;2022-09-03T04:27:56;2.63;;;0.77;;
67726;SDS011;54525;55.680;37.540;2022-09-03T04:30:21;3.92;;;1.10;;
67726;SDS011;54525;55.680;37.540;2022-09-03T04:32:50;1.30;;;0.70;;
67726;SDS011;54525;55.680;37.540;2022-09-03T04:35:20;1.02;;;0.63;;
67726;SDS011;54525;55.680;37.540;2022-09-03T04:37:47;1.75;;;0.75;;
67726;SDS011;54525;55.680;37.540;2022-09-03T04:40:19;1.35;;;0.68;;
67726;SDS011;54525;55.680;37.540;2022-09-03T04:42:45;1.27;;;0.70;;
67726;SDS011;54525;55.680;37.540;2022-09-03T04:45:10;1.60;;;0.63;;
67726;SDS011;54525;55.680;37.540;2022-09-03T04:47:36;1.20;;;0.68;;
67726;SDS011;54525;55.680;37.540;2022-09-03T04:50:03;1.67;;;0.73;;
67726;SDS011;54525;55.680;37.540;2022-09-03T04:52:29;2.42;;;0.77;;
67726;SDS011;54525;55.680;37.540;2022-09-03T04:54:56;4.07;;;1.17;;
67726;SDS011;54525;55.680;37.540;2022-09-03T04:57:22;1.77;;;0.60;;
67726;SDS011;54525;55.680;37.540;2022-09-03T04:59:48;0.98;;;0.57;;
67726;SDS011;54525;55.680;37.540;2022-09-03T05:02:13;2.03;;;0.90;;
67726;SDS011;54525;55.680;37.540;2022-09-03T05:04:39;1.92;;;0.80;;
67726;SDS011;54525;55.680;37.540;2022-09-03T05:07:08;1.30;;;0.93;;
67726;SDS011;54525;55.680;37.540;2022-09-03T05:09:33;1.45;;;0.82;;
67726;SDS011;54525;55.680;37.540;2022-09-03T05:11:59;2.28;;;1.00;;
67726;SDS011;54525;55.680;37.540;2022-09-03T05:14:24;1.55;;;1.15;;
67726;SDS011;54525;55.680;37.540;2022-09-03T05:16:50;1.58;;;1.00;;
67726;SDS011;54525;55.680;37.540;2022-09-03T05:19:16;1.75;;;1.30;;
67726;SDS011;54525;55.680;37.540;2022-09-03T05:21:41;1.63;;;1.00;;
67726;SDS011;54525;55.680;37.540;2022-09-03T05:24:07;1.90;;;0.95;;
67726;SDS011;54525;55.680;37.540;2022-09-03T05:26:35;1.70;;;1.10;;
67726;SDS011;54525;55.680;37.540;2022-09-03T05:29:03;2.47;;;0.90;;
67726;SDS011;54525;55.680;37.540;2022-09-03T05:31:33;1.35;;;0.70;;
67726;SDS011;54525;55.680;37.540;2022-09-03T05:34:02;1.38;;;0.82;;
67726;SDS011;54525;55.680;37.540;2022-09-03T05:36:30;0.68;;;0.57;;
67726;SDS011;54525;55.680;37.540;2022-09-03T05:38:58;2.03;;;0.82;;
67726;SDS011;54525;55.680;37.540;2022-09-03T05:41:24;3.65;;;0.82;;
67726;SDS011;54525;55.680;37.540;2022-09-03T05:43:52;0.77;;;0.65;;
67726;SDS011;54525;55.680;37.540;2022-09-03T05:46:23;2.97;;;0.80;;
67726;SDS011;54525;55.680;37.540;2022-09-03T05:48:56;1.60;;;1.00;;
67726;SDS011;54525;55.680;37.540;2022-09-03T05:51:25;0.73;;;0.50;;
67726;SDS011;54525;55.680;37.540;2022-09-03T05:53:52;0.75;;;0.60;;
67726;SDS011;54525;55.680;37.540;2022-09-03T05:56:20;0.95;;;0.85;;
67726;SDS011;54525;55.680;37.540;2022-09-03T05:58:48;1.30;;;0.80;;
67726;SDS011;54525;55.680;37.540;2022-09-03T06:01:16;1.20;;;0.60;;
67726;SDS011;54525;55.680;37.540;2022-09-03T06:03:42;1.50;;;0.85;;
67726;SDS011;54525;55.680;37.540;2022-09-03T06:06:09;1.15;;;0.80;;
67726;SDS011;54525;55.680;37.540;2022-09-03T06:08:35;1.02;;;0.60;;
67726;SDS011;54525;55.680;37.540;2022-09-03T06:11:06;3.42;;;0.60;;
67726;SDS011;54525;55.680;37.540;2022-09-03T06:13:32;1.30;;;0.52;;
67726;SDS011;54525;55.680;37.540;2022-09-03T06:16:00;1.40;;;0.55;;
67726;SDS011;54525;55.680;37.540;2022-09-03T06:18:30;4.57;;;0.73;;
67726;SDS011;54525;55.680;37.540;2022-09-03T06:20:59;2.30;;;0.70;;
67726;SDS011;54525;55.680;37.540;2022-09-03T06:23:30;4.72;;;0.95;;
67726;SDS011;54525;55.680;37.540;2022-09-03T06:28:29;1.35;;;0.82;;
67726;SDS011;54525;55.680;37.540;2022-09-03T06:30:59;2.90;;;1.00;;
67726;SDS011;54525;55.680;37.540;2022-09-03T06:33:26;1.43;;;0.80;;
67726;SDS011;54525;55.680;37.540;2022-09-03T06:35:56;1.23;;;0.52;;
67726;SDS011;54525;55.680;37.540;2022-09-03T06:38:24;1.00;;;0.70;;
67726;SDS011;54525;55.680;37.540;2022-09-03T06:40:54;1.48;;;0.50;;
67726;SDS011;54525;55.680;37.540;2022-09-03T06:43:21;1.65;;;0.63;;
67726;SDS011;54525;55.680;37.540;2022-09-03T06:45:55;2.92;;;0.73;;
67726;SDS011;54525;55.680;37.540;2022-09-03T06:48:22;1.85;;;0.55;;
67726;SDS011;54525;55.680;37.540;2022-09-03T06:51:03;1.23;;;0.55;;
67726;SDS011;54525;55.680;37.540;2022-09-03T06:53:35;1.20;;;0.60;;
67726;SDS011;54525;55.680;37.540;2022-09-03T06:56:02;1.45;;;0.60;;
67726;SDS011;54525;55.680;37.540;2022-09-03T06:58:31;1.17;;;0.40;;
67726;SDS011;54525;55.680;37.540;2022-09-03T07:01:05;0.98;;;0.52;;
67726;SDS011;54525;55.680;37.540;2022-09-03T07:03:32;1.38;;;0.52;;
67726;SDS011;54525;55.680;37.540;2022-09-03T07:06:01;1.30;;;0.43;;
67726;SDS011;54525;55.680;37.540;2022-09-03T07:08:29;1.65;;;0.60;;
67726;SDS011;54525;55.680;37.540;2022-09-03T07:10:57;1.90;;;0.50;;
67726;SDS011;54525;55.680;37.540;2022-09-03T07:13:24;0.80;;;0.38;;
67726;SDS011;54525;55.680;37.540;2022-09-03T07:16:03;0.60;;;0.40;;
67726;SDS011;54525;55.680;37.540;2022-09-03T07:18:32;0.80;;;0.50;;
67726;SDS011;54525;55.680;37.540;2022-09-03T07:21:01;1.60;;;0.60;;
67726;SDS011;54525;55.680;37.540;2022-09-03T07:23:29;2.17;;;0.60;;
67726;SDS011;54525;55.680;37.540;2022-09-03T07:25:56;1.70;;;0.63;;
67726;SDS011;54525;55.680;37.540;2022-09-03T07:28:23;1.58;;;0.57;;
67726;SDS011;54525;55.680;37.540;2022-09-03T07:30:50;0.80;;;0.60;;
67726;SDS011;54525;55.680;37.540;2022-09-03T07:33:16;0.73;;;0.50;;
67726;SDS011;54525;55.680;37.540;2022-09-03T07:35:43;0.80;;;0.40;;
67726;SDS011;54525;55.680;37.540;2022-09-03T07:38:09;3.85;;;0.50;;
67726;SDS011;54525;55.680;37.540;2022-09-03T07:40:35;1.20;;;0.40;;
67726;SDS011;54525;55.680;37.540;2022-09-03T07:43:03;1.20;;;0.40;;
67726;SDS011;54525;55.680;37.540;2022-09-03T07:45:29;1.55;;;0.63;;
67726;SDS011;54525;55.680;37.540;2022-09-03T07:47:57;0.65;;;0.40;;
67726;SDS011;54525;55.680;37.540;2022-09-03T07:50:23;0.60;;;0.40;;
67726;SDS011;54525;55.680;37.540;2022-09-03T07:52:49;1.27;;;0.57;;
67726;SDS011;54525;55.680;37.540;2022-09-03T07:55:19;2.13;;;0.60;;
67726;SDS011;54525;55.680;37.540;2022-09-03T07:57:45;0.80;;;0.35;;
67726;SDS011;54525;55.680;37.540;2022-09-03T08:00:10;0.52;;;0.38;;
67726;SDS011;54525;55.680;37.540;2022-09-03T08:02:37;0.75;;;0.50;;
67726;SDS011;54525;55.680;37.540;2022-09-03T08:05:02;1.38;;;0.38;;
67726;SDS011;54525;55.680;37.540;2022-09-03T08:07:28;0.47;;;0.38;;
67726;SDS011;54525;55.680;37.540;2022-09-03T08:09:54;0.50;;;0.30;;
67726;SDS011;54525;55.680;37.540;2022-09-03T08:12:20;0.50;;;0.40;;
67726;SDS011;54525;55.680;37.540;2022-09-03T08:14:46;0.73;;;0.52;;
67726;SDS011;54525;55.680;37.540;2022-09-03T08:17:12;0.77;;;0.55;;
67726;SDS011;54525;55.680;37.540;2022-09-03T08:19:37;0.73;;;0.40;;
67726;SDS011;54525;55.680;37.540;2022-09-03T08:22:05;0.35;;;0.20;;
67726;SDS011;54525;55.680;37.540;2022-09-03T08:24:30;0.65;;;0.43;;
67726;SDS011;54525;55.680;37.540;2022-09-03T08:26:57;1.55;;;0.52;;
67726;SDS011;54525;55.680;37.540;2022-09-03T08:29:22;1.23;;;0.50;;
67726;SDS011;54525;55.680;37.540;2022-09-03T08:31:48;1.75;;;0.77;;
67726;SDS011;54525;55.680;37.540;2022-09-03T08:34:13;3.35;;;1.05;;
67726;SDS011;54525;55.680;37.540;2022-09-03T08:36:41;3.33;;;1.55;;
67726;SDS011;54525;55.680;37.540;2022-09-03T08:39:07;3.83;;;2.05;;
67726;SDS011;54525;55.680;37.540;2022-09-03T08:49:20;3.28;;;1.67;;
67726;SDS011;54525;55.680;37.540;2022-09-03T08:51:50;2.47;;;1.27;;
67726;SDS011;54525;55.680;37.540;2022-09-03T08:54:19;5.95;;;1.50;;
67726;SDS011;54525;55.680;37.540;2022-09-03T08:56:49;3.58;;;1.30;;
67726;SDS011;54525;55.680;37.540;2022-09-03T08:59:14;2.90;;;1.40;;
67726;SDS011;54525;55.680;37.540;2022-09-03T09:02:03;2.55;;;1.45;;
67726;SDS011;54525;55.680;37.540;2022-09-03T09:07:21;3.72;;;1.60;;
67726;SDS011;54525;55.680;37.540;2022-09-03T09:09:56;2.70;;;1.10;;
67726;SDS011;54525;55.680;37.540;2022-09-03T09:15:48;2.50;;;1.13;;
67726;SDS011;54525;55.680;37.540;2022-09-03T09:20:53;5.13;;;1.48;;
67726;SDS011;54525;55.680;37.540;2022-09-03T09:26:05;2.05;;;1.00;;
67726;SDS011;54525;55.680;37.540;2022-09-03T09:28:35;3.90;;;1.73;;
67726;SDS011;54525;55.680;37.540;2022-09-03T09:31:02;3.55;;;1.70;;
67726;SDS011;54525;55.680;37.540;2022-09-03T09:33:31;2.00;;;1.23;;
67726;SDS011;54525;55.680;37.540;2022-09-03T09:36:02;2.88;;;1.05;;
67726;SDS011;54525;55.680;37.540;2022-09-03T09:38:33;3.17;;;1.10;;
67726;SDS011;54525;55.680;37.540;2022-09-03T09:44:01;1.27;;;0.77;;
67726;SDS011;54525;55.680;37.540;2022-09-03T09:46:34;2.42;;;0.95;;
67726;SDS011;54525;55.680;37.540;2022-09-03T09:49:02;2.25;;;1.08;;
67726;SDS011;54525;55.680;37.540;2022-09-03T09:51:28;3.03;;;0.90;;
67726;SDS011;54525;55.680;37.540;2022-09-03T09:54:03;12.52;;;1.00;;
67726;SDS011;54525;55.680;37.540;2022-09-03T09:56:34;4.63;;;0.98;;
67726;SDS011;54525;55.680;37.540;2022-09-03T09:59:07;1.77;;;0.85;;
67726;SDS011;54525;55.680;37.540;2022-09-03T10:01:38;1.50;;;0.98;;
67726;SDS011;54525;55.680;37.540;2022-09-03T10:04:09;1.45;;;0.80;;
67726;SDS011;54525;55.680;37.540;2022-09-03T10:06:37;2.55;;;0.75;;
67726;SDS011;54525;55.680;37.540;2022-09-03T10:09:20;1.92;;;1.20;;
67726;SDS011;54525;55.680;37.540;2022-09-03T10:11:51;2.20;;;0.50;;
67726;SDS011;54525;55.680;37.540;2022-09-03T10:14:27;1.92;;;0.70;;
67726;SDS011;54525;55.680;37.540;2022-09-03T10:20:23;1.63;;;0.80;;
67726;SDS011;54525;55.680;37.540;2022-09-03T10:28:36;1.58;;;0.85;;
67726;SDS011;54525;55.680;37.540;2022-09-03T10:31:19;1.45;;;0.65;;
67726;SDS011;54525;55.680;37.540;2022-09-03T10:34:05;2.17;;;1.08;;
67726;SDS011;54525;55.680;37.540;2022-09-03T10:45:36;5.20;;;2.05;;
67726;SDS011;54525;55.680;37.540;2022-09-03T10:50:53;2.70;;;1.17;;
67726;SDS011;54525;55.680;37.540;2022-09-03T10:53:34;3.78;;;1.30;;
67726;SDS011;54525;55.680;37.540;2022-09-03T11:05:38;2.28;;;0.98;;
67726;SDS011;54525;55.680;37.540;2022-09-03T11:08:16;2.47;;;0.80;;
67726;SDS011;54525;55.680;37.540;2022-09-03T11:10:53;6.88;;;1.73;;
67726;SDS011;54525;55.680;37.540;2022-09-03T11:13:29;2.80;;;0.85;;
67726;SDS011;54525;55.680;37.540;2022-09-03T11:16:05;5.93;;;1.05;;
67726;SDS011;54525;55.680;37.540;2022-09-03T11:18:43;3.22;;;1.08;;
67726;SDS011;54525;55.680;37.540;2022-09-03T11:21:14;2.47;;;1.00;;
67726;SDS011;54525;55.680;37.540;2022-09-03T11:23:43;4.68;;;1.20;;
67726;SDS011;54525;55.680;37.540;2022-09-03T11:26:12;4.10;;;1.00;;
67726;SDS011;54525;55.680;37.540;2022-09-03T11:34:14;3.33;;;1.15;;
67726;SDS011;54525;55.680;37.540;2022-09-03T11:36:51;5.93;;;1.70;;
67726;SDS011;54525;55.680;37.540;2022-09-03T11:42:00;5.68;;;1.85;;
67726;SDS011;54525;55.680;37.540;2022-09-03T11:44:36;5.15;;;0.85;;
67726;SDS011;54525;55.680;37.540;2022-09-03T11:47:20;4.10;;;1.70;;
67726;SDS011;54525;55.680;37.540;2022-09-03T11:49:48;2.70;;;0.90;;
67726;SDS011;54525;55.680;37.540;2022-09-03T11:52:26;3.45;;;1.17;;
67726;SDS011;54525;55.680;37.540;2022-09-03T11:54:56;2.45;;;1.02;;
67726;SDS011;54525;55.680;37.540;2022-09-03T11:57:26;4.07;;;0.68;;
67726;SDS011;54525;55.680;37.540;2022-09-03T11:59:53;1.50;;;0.60;;
67726;SDS011;54525;55.680;37.540;2022-09-03T12:02:31;5.90;;;0.77;;
67726;SDS011;54525;55.680;37.540;2022-09-03T12:05:11;2.28;;;0.60;;
67726;SDS011;54525;55.680;37.540;2022-09-03T12:07:57;3.00;;;0.85;;
67726;SDS011;54525;55.680;37.540;2022-09-03T12:13:53;3.00;;;0.60;;
67726;SDS011;54525;55.680;37.540;2022-09-03T12:21:59;1.80;;;0.57;;
67726;SDS011;54525;55.680;37.540;2022-09-03T12:24:27;3.67;;;0.52;;
67726;SDS011;54525;55.680;37.540;2022-09-03T12:26:56;2.08;;;0.50;;
67726;SDS011;54525;55.680;37.540;2022-09-03T12:29:25;4.03;;;0.65;;
67726;SDS011;54525;55.680;37.540;2022-09-03T12:31:52;2.08;;;0.60;;
67726;SDS011;54525;55.680;37.540;2022-09-03T12:34:20;1.85;;;0.77;;
67726;SDS011;54525;55.680;37.540;2022-09-03T12:36:48;1.75;;;0.55;;
67726;SDS011;54525;55.680;37.540;2022-09-03T12:39:20;2.75;;;0.38;;
67726;SDS011;54525;55.680;37.540;2022-09-03T12:44:28;10.25;;;0.88;;
67726;SDS011;54525;55.680;37.540;2022-09-03T12:49:42;1.38;;;0.70;;
67726;SDS011;54525;55.680;37.540;2022-09-03T12:55:50;2.87;;;0.97;;
67726;SDS011;54525;55.680;37.540;2022-09-03T13:00:41;2.45;;;0.85;;
67726;SDS011;54525;55.680;37.540;2022-09-03T13:06:09;3.63;;;1.02;;
67726;SDS011;54525;55.680;37.540;2022-09-03T13:08:40;0.75;;;0.43;;
67726;SDS011;54525;55.680;37.540;2022-09-03T13:11:13;0.85;;;0.43;;
67726;SDS011;54525;55.680;37.540;2022-09-03T13:13:47;5.03;;;0.85;;
67726;SDS011;54525;55.680;37.540;2022-09-03T13:21:57;2.47;;;1.08;;
67726;SDS011;54525;55.680;37.540;2022-09-03T13:24:53;1.17;;;0.43;;
67726;SDS011;54525;55.680;37.540;2022-09-03T13:30:11;2.70;;;0.65;;
67726;SDS011;54525;55.680;37.540;2022-09-03T13:43:56;3.45;;;0.85;;
67726;SDS011;54525;55.680;37.540;2022-09-03T13:52:18;1.15;;;0.60;;
67726;SDS011;54525;55.680;37.540;2022-09-03T13:54:55;3.20;;;0.40;;
67726;SDS011;54525;55.680;37.540;2022-09-03T13:57:36;1.48;;;0.65;;
67726;SDS011;54525;55.680;37.540;2022-09-03T14:00:11;3.15;;;0.77;;
67726;SDS011;54525;55.680;37.540;2022-09-03T14:03:07;1.27;;;0.52;;
67726;SDS011;54525;55.680;37.540;2022-09-03T14:08:38;2.20;;;0.70;;
67726;SDS011;54525;55.680;37.540;2022-09-03T14:14:05;3.50;;;0.70;;
67726;SDS011;54525;55.680;37.540;2022-09-03T14:25:56;3.80;;;0.82;;
67726;SDS011;54525;55.680;37.540;2022-09-03T14:36:22;2.95;;;0.60;;
67726;SDS011;54525;55.680;37.540;2022-09-03T14:50:12;1.17;;;0.47;;
67726;SDS011;54525;55.680;37.540;2022-09-03T14:55:48;2.97;;;0.63;;
67726;SDS011;54525;55.680;37.540;2022-09-03T15:01:33;0.85;;;0.43;;
67726;SDS011;54525;55.680;37.540;2022-09-03T15:06:55;0.85;;;0.55;;
67726;SDS011;54525;55.680;37.540;2022-09-03T15:09:27;1.08;;;0.55;;
67726;SDS011;54525;55.680;37.540;2022-09-03T15:12:24;1.02;;;0.57;;
67726;SDS011;54525;55.680;37.540;2022-09-03T15:15:12;1.10;;;0.50;;
67726;SDS011;54525;55.680;37.540;2022-09-03T15:20:49;2.05;;;0.55;;
67726;SDS011;54525;55.680;37.540;2022-09-03T15:23:37;1.48;;;0.40;;
67726;SDS011;54525;55.680;37.540;2022-09-03T15:36:58;2.20;;;1.15;;
67726;SDS011;54525;55.680;37.540;2022-09-03T15:39:32;5.05;;;2.42;;
67726;SDS011;54525;55.680;37.540;2022-09-03T15:42:07;14.20;;;9.02;;
67726;SDS011;54525;55.680;37.540;2022-09-03T15:44:44;23.65;;;16.75;;
67726;SDS011;54525;55.680;37.540;2022-09-03T15:48:00;12.77;;;8.30;;
67726;SDS011;54525;55.680;37.540;2022-09-03T15:53:11;17.15;;;8.40;;
67726;SDS011;54525;55.680;37.540;2022-09-03T15:55:49;10.35;;;5.55;;
67726;SDS011;54525;55.680;37.540;2022-09-03T15:58:36;9.95;;;5.28;;
67726;SDS011;54525;55.680;37.540;2022-09-03T16:01:19;8.63;;;4.43;;
67726;SDS011;54525;55.680;37.540;2022-09-03T16:04:02;5.82;;;3.15;;
67726;SDS011;54525;55.680;37.540;2022-09-03T16:06:48;8.68;;;4.80;;
67726;SDS011;54525;55.680;37.540;2022-09-03T16:14:34;8.25;;;4.68;;
67726;SDS011;54525;55.680;37.540;2022-09-03T16:19:44;9.15;;;5.82;;
67726;SDS011;54525;55.680;37.540;2022-09-03T16:22:26;7.28;;;5.18;;
67726;SDS011;54525;55.680;37.540;2022-09-03T16:25:00;8.27;;;3.92;;
67726;SDS011;54525;55.680;37.540;2022-09-03T16:30:32;4.63;;;3.38;;
67726;SDS011;54525;55.680;37.540;2022-09-03T16:35:50;7.45;;;3.13;;
67726;SDS011;54525;55.680;37.540;2022-09-03T16:48:56;6.93;;;2.72;;
67726;SDS011;54525;55.680;37.540;2022-09-03T16:51:27;7.30;;;3.05;;
67726;SDS011;54525;55.680;37.540;2022-09-03T17:05:34;5.43;;;3.13;;
67726;SDS011;54525;55.680;37.540;2022-09-03T17:08:18;4.43;;;1.92;;
67726;SDS011;54525;55.680;37.540;2022-09-03T17:19:31;5.10;;;3.15;;
67726;SDS011;54525;55.680;37.540;2022-09-03T17:24:55;9.02;;;2.50;;
67726;SDS011;54525;55.680;37.540;2022-09-03T17:35:37;5.85;;;3.00;;
67726;SDS011;54525;55.680;37.540;2022-09-03T17:43:57;8.13;;;3.65;;
67726;SDS011;54525;55.680;37.540;2022-09-03T17:49:07;6.65;;;3.00;;
67726;SDS011;54525;55.680;37.540;2022-09-03T17:52:12;5.55;;;2.83;;
67726;SDS011;54525;55.680;37.540;2022-09-03T17:54:49;6.18;;;3.22;;
67726;SDS011;54525;55.680;37.540;2022-09-03T17:57:20;5.53;;;2.75;;
67726;SDS011;54525;55.680;37.540;2022-09-03T18:02:38;4.47;;;3.15;;
67726;SDS011;54525;55.680;37.540;2022-09-03T18:08:11;5.78;;;2.95;;
67726;SDS011;54525;55.680;37.540;2022-09-03T18:11:06;8.68;;;2.63;;
67726;SDS011;54525;55.680;37.540;2022-09-03T18:13:57;4.20;;;2.90;;
67726;SDS011;54525;55.680;37.540;2022-09-03T18:16:28;7.40;;;2.65;;
67726;SDS011;54525;55.680;37.540;2022-09-03T18:19:24;6.93;;;2.88;;
67726;SDS011;54525;55.680;37.540;2022-09-03T18:25:05;5.65;;;2.95;;
67726;SDS011;54525;55.680;37.540;2022-09-03T18:28:02;3.67;;;2.42;;
67726;SDS011;54525;55.680;37.540;2022-09-03T18:31:00;4.68;;;1.92;;
67726;SDS011;54525;55.680;37.540;2022-09-03T18:33:44;4.68;;;2.60;;
67726;SDS011;54525;55.680;37.540;2022-09-03T18:36:29;4.63;;;2.10;;
67726;SDS011;54525;55.680;37.540;2022-09-03T18:39:24;5.47;;;2.80;;
67726;SDS011;54525;55.680;37.540;2022-09-03T18:56:58;6.18;;;2.63;;
67726;SDS011;54525;55.680;37.540;2022-09-03T19:06:12;6.57;;;3.17;;
67726;SDS011;54525;55.680;37.540;2022-09-03T19:15:05;6.28;;;3.22;;
67726;SDS011;54525;55.680;37.540;2022-09-03T19:20:57;8.02;;;2.92;;
67726;SDS011;54525;55.680;37.540;2022-09-03T19:23:43;6.45;;;2.83;;
67726;SDS011;54525;55.680;37.540;2022-09-03T19:26:35;6.75;;;2.78;;
67726;SDS011;54525;55.680;37.540;2022-09-03T19:30:08;11.15;;;2.95;;
67726;SDS011;54525;55.680;37.540;2022-09-03T19:35:42;6.82;;;2.55;;
67726;SDS011;54525;55.680;37.540;2022-09-03T19:38:41;5.53;;;2.42;;
67726;SDS011;54525;55.680;37.540;2022-09-03T19:41:47;4.35;;;2.42;;
67726;SDS011;54525;55.680;37.540;2022-09-03T19:48:19;4.18;;;2.75;;
67726;SDS011;54525;55.680;37.540;2022-09-03T19:51:20;3.75;;;2.72;;
67726;SDS011;54525;55.680;37.540;2022-09-03T19:56:53;8.38;;;2.50;;
67726;SDS011;54525;55.680;37.540;2022-09-03T19:59:40;5.90;;;2.65;;
67726;SDS011;54525;55.680;37.540;2022-09-03T20:02:27;6.78;;;3.25;;
67726;SDS011;54525;55.680;37.540;2022-09-03T20:05:29;9.30;;;2.92;;
67726;SDS011;54525;55.680;37.540;2022-09-03T20:08:15;9.00;;;3.53;;
67726;SDS011;54525;55.680;37.540;2022-09-03T20:11:00;7.20;;;3.95;;
67726;SDS011;54525;55.680;37.540;2022-09-03T20:13:28;7.20;;;3.20;;
67726;SDS011;54525;55.680;37.540;2022-09-03T20:19:22;10.10;;;3.13;;
67726;SDS011;54525;55.680;37.540;2022-09-03T20:21:53;12.73;;;4.95;;
67726;SDS011;54525;55.680;37.540;2022-09-03T20:27:03;10.02;;;4.95;;
67726;SDS011;54525;55.680;37.540;2022-09-03T20:29:42;7.53;;;3.88;;
67726;SDS011;54525;55.680;37.540;2022-09-03T20:35:21;9.32;;;5.22;;
67726;SDS011;54525;55.680;37.540;2022-09-03T20:38:43;15.07;;;5.23;;
67726;SDS011;54525;55.680;37.540;2022-09-03T20:46:32;9.88;;;5.88;;
67726;SDS011;54525;55.680;37.540;2022-09-03T20:49:16;11.68;;;5.10;;
67726;SDS011;54525;55.680;37.540;2022-09-03T20:51:54;9.50;;;5.10;;
67726;SDS011;54525;55.680;37.540;2022-09-03T20:54:34;11.25;;;5.70;;
67726;SDS011;54525;55.680;37.540;2022-09-03T21:16:06;8.27;;;5.13;;
67726;SDS011;54525;55.680;37.540;2022-09-03T21:19:10;10.15;;;6.18;;
67726;SDS011;54525;55.680;37.540;2022-09-03T21:27:58;16.85;;;6.60;;
67726;SDS011;54525;55.680;37.540;2022-09-03T21:30:27;13.73;;;7.15;;
67726;SDS011;54525;55.680;37.540;2022-09-03T21:32:59;10.35;;;6.25;;
67726;SDS011;54525;55.680;37.540;2022-09-03T21:35:34;12.18;;;6.28;;
67726;SDS011;54525;55.680;37.540;2022-09-03T21:38:20;12.45;;;6.25;;
67726;SDS011;54525;55.680;37.540;2022-09-03T21:43:21;9.68;;;5.75;;